sensor_id;sensor_type;location;lat;lon;timestamp;pressure;altitude;pressure_sealevel;temperature;humidity
4398;BME280;2213;49.720;7.296;2023-01-26T00:00:21;98781.34;;;0.16;100.00
4398;BME280;2213;49.720;7.296;2023-01-26T00:02:52;98782.38;;;0.14;100.00
4398;BME280;2213;49.720;7.296;2023-01-26T00:05:23;98777.75;;;0.06;100.00
4398;BME280;2213;49.720;7.296;2023-01-26T00:07:52;98773.91;;;0.12;100.00
4398;BME280;2213;49.720;7.296;2023-01-26T00:10:22;98766.81;;;0.15;100.00
4398;BME280;2213;49.720;7.296;2023-01-26T00:12:52;98771.25;;;0.13;100.00
4398;BME280;2213;49.720;7.296;2023-01-26T00:15:22;98767.94;;;0.11;100.00
4398;BME280;2213;49.720;7.296;2023-01-26T00:17:54;98769.81;;;0.09;100.00
4398;BME280;2213;49.720;7.296;2023-01-26T00:20:24;98773.22;;;0.10;100.00
4398;BME280;2213;49.720;7.296;2023-01-26T00:22:53;98781.84;;;0.09;100.00
4398;BME280;2213;49.720;7.296;2023-01-26T00:25:24;98775.16;;;0.06;100.00
4398;BME280;2213;49.720;7.296;2023-01-26T00:27:55;98767.66;;;0.03;100.00
4398;BME280;2213;49.720;7.296;2023-01-26T00:30:24;98766.09;;;0.00;100.00
4398;BME280;2213;49.720;7.296;2023-01-26T00:32:55;98768.59;;;0.02;100.00
4398;BME280;2213;49.720;7.296;2023-01-26T00:35:25;98772.69;;;0.05;100.00
4398;BME280;2213;49.720;7.296;2023-01-26T00:37:55;98780.31;;;0.06;100.00
4398;BME280;2213;49.720;7.296;2023-01-26T00:40:25;98769.63;;;-0.01;100.00
4398;BME280;2213;49.720;7.296;2023-01-26T00:42:55;98768.06;;;-0.03;100.00
4398;BME280;2213;49.720;7.296;2023-01-26T00:45:26;98785.03;;;-0.01;100.00
4398;BME280;2213;49.720;7.296;2023-01-26T00:47:58;98776.38;;;0.00;100.00
4398;BME280;2213;49.720;7.296;2023-01-26T00:50:29;98763.44;;;0.02;100.00
4398;BME280;2213;49.720;7.296;2023-01-26T00:52:58;98756.84;;;-0.02;100.00
4398;BME280;2213;49.720;7.296;2023-01-26T00:55:28;98766.22;;;-0.01;100.00
4398;BME280;2213;49.720;7.296;2023-01-26T00:57:58;98770.13;;;-0.08;100.00
4398;BME280;2213;49.720;7.296;2023-01-26T01:00:27;98767.78;;;-0.11;100.00
4398;BME280;2213;49.720;7.296;2023-01-26T01:02:59;98761.59;;;-0.09;100.00
4398;BME280;2213;49.720;7.296;2023-01-26T01:05:31;98770.84;;;-0.06;100.00
4398;BME280;2213;49.720;7.296;2023-01-26T01:08:01;98767.56;;;-0.08;100.00
4398;BME280;2213;49.720;7.296;2023-01-26T01:10:32;98763.53;;;-0.12;100.00
4398;BME280;2213;49.720;7.296;2023-01-26T01:13:03;98773.00;;;-0.13;100.00
4398;BME280;2213;49.720;7.296;2023-01-26T01:15:32;98774.53;;;-0.10;100.00
4398;BME280;2213;49.720;7.296;2023-01-26T01:18:04;98773.81;;;-0.12;100.00
4398;BME280;2213;49.720;7.296;2023-01-26T01:20:33;98768.69;;;-0.12;100.00
4398;BME280;2213;49.720;7.296;2023-01-26T01:23:02;98771.47;;;-0.15;100.00
4398;BME280;2213;49.720;7.296;2023-01-26T01:25:32;98777.09;;;-0.10;100.00
4398;BME280;2213;49.720;7.296;2023-01-26T01:28:03;98770.44;;;-0.13;100.00
4398;BME280;2213;49.720;7.296;2023-01-26T01:30:32;98762.09;;;-0.16;100.00
4398;BME280;2213;49.720;7.296;2023-01-26T01:33:04;98753.34;;;-0.14;100.00
4398;BME280;2213;49.720;7.296;2023-01-26T01:35:34;98758.94;;;-0.07;100.00
4398;BME280;2213;49.720;7.296;2023-01-26T01:38:05;98764.69;;;-0.04;100.00
4398;BME280;2213;49.720;7.296;2023-01-26T01:40:34;98766.31;;;-0.03;100.00
4398;BME280;2213;49.720;7.296;2023-01-26T01:43:11;98772.06;;;0.01;100.00
4398;BME280;2213;49.720;7.296;2023-01-26T01:45:44;98766.00;;;0.02;100.00
4398;BME280;2213;49.720;7.296;2023-01-26T01:48:22;98756.66;;;0.01;100.00
4398;BME280;2213;49.720;7.296;2023-01-26T01:50:58;98764.16;;;-0.09;100.00
4398;BME280;2213;49.720;7.296;2023-01-26T01:53:32;98761.69;;;-0.10;100.00
4398;BME280;2213;49.720;7.296;2023-01-26T01:56:11;98766.44;;;-0.04;100.00
4398;BME280;2213;49.720;7.296;2023-01-26T01:58:43;98762.91;;;-0.03;100.00
4398;BME280;2213;49.720;7.296;2023-01-26T02:01:13;98758.31;;;0.02;100.00
4398;BME280;2213;49.720;7.296;2023-01-26T02:03:46;98748.03;;;0.02;100.00
4398;BME280;2213;49.720;7.296;2023-01-26T02:06:21;98750.28;;;-0.06;100.00
4398;BME280;2213;49.720;7.296;2023-01-26T02:08:56;98753.06;;;-0.09;100.00
4398;BME280;2213;49.720;7.296;2023-01-26T02:11:32;98744.31;;;-0.07;100.00
4398;BME280;2213;49.720;7.296;2023-01-26T02:14:07;98735.50;;;-0.15;100.00
4398;BME280;2213;49.720;7.296;2023-01-26T02:16:39;98739.28;;;-0.08;100.00
4398;BME280;2213;49.720;7.296;2023-01-26T02:19:19;98738.25;;;-0.06;100.00
4398;BME280;2213;49.720;7.296;2023-01-26T02:21:54;98738.03;;;-0.03;100.00
4398;BME280;2213;49.720;7.296;2023-01-26T02:24:32;98722.94;;;-0.07;100.00
4398;BME280;2213;49.720;7.296;2023-01-26T02:27:04;98729.00;;;-0.08;100.00
4398;BME280;2213;49.720;7.296;2023-01-26T02:29:35;98723.13;;;-0.10;100.00
4398;BME280;2213;49.720;7.296;2023-01-26T02:32:05;98723.56;;;-0.16;100.00
4398;BME280;2213;49.720;7.296;2023-01-26T02:34:35;98720.50;;;-0.21;100.00
4398;BME280;2213;49.720;7.296;2023-01-26T02:37:11;98731.25;;;-0.16;100.00
4398;BME280;2213;49.720;7.296;2023-01-26T02:39:50;98716.16;;;-0.21;100.00
4398;BME280;2213;49.720;7.296;2023-01-26T02:42:24;98709.25;;;-0.20;100.00
4398;BME280;2213;49.720;7.296;2023-01-26T02:45:14;98701.16;;;-0.14;100.00
4398;BME280;2213;49.720;7.296;2023-01-26T02:47:44;98692.22;;;-0.21;100.00
4398;BME280;2213;49.720;7.296;2023-01-26T02:50:15;98694.97;;;-0.24;100.00
4398;BME280;2213;49.720;7.296;2023-01-26T02:52:44;98695.81;;;-0.24;100.00
4398;BME280;2213;49.720;7.296;2023-01-26T02:55:15;98702.19;;;-0.17;100.00
4398;BME280;2213;49.720;7.296;2023-01-26T02:57:56;98685.53;;;-0.11;100.00
4398;BME280;2213;49.720;7.296;2023-01-26T03:00:28;98678.66;;;-0.11;100.00
4398;BME280;2213;49.720;7.296;2023-01-26T03:03:00;98688.41;;;-0.16;100.00
4398;BME280;2213;49.720;7.296;2023-01-26T03:05:31;98685.75;;;-0.14;100.00
4398;BME280;2213;49.720;7.296;2023-01-26T03:08:00;98678.03;;;-0.14;100.00
4398;BME280;2213;49.720;7.296;2023-01-26T03:10:32;98683.88;;;-0.12;100.00
4398;BME280;2213;49.720;7.296;2023-01-26T03:13:04;98681.09;;;-0.09;100.00
4398;BME280;2213;49.720;7.296;2023-01-26T03:15:33;98673.19;;;-0.06;100.00
4398;BME280;2213;49.720;7.296;2023-01-26T03:18:13;98666.00;;;-0.01;100.00
4398;BME280;2213;49.720;7.296;2023-01-26T03:21:16;98667.41;;;0.03;100.00
4398;BME280;2213;49.720;7.296;2023-01-26T03:24:03;98662.50;;;0.00;100.00
4398;BME280;2213;49.720;7.296;2023-01-26T03:26:50;98664.13;;;0.01;100.00
4398;BME280;2213;49.720;7.296;2023-01-26T03:29:39;98668.44;;;0.00;100.00
4398;BME280;2213;49.720;7.296;2023-01-26T03:32:09;98659.94;;;0.00;100.00
4398;BME280;2213;49.720;7.296;2023-01-26T03:34:38;98665.78;;;0.02;100.00
4398;BME280;2213;49.720;7.296;2023-01-26T03:37:07;98675.13;;;0.03;100.00
4398;BME280;2213;49.720;7.296;2023-01-26T03:39:36;98676.75;;;0.04;100.00
4398;BME280;2213;49.720;7.296;2023-01-26T03:42:24;98675.00;;;0.05;100.00
4398;BME280;2213;49.720;7.296;2023-01-26T03:45:13;98667.41;;;0.03;100.00
4398;BME280;2213;49.720;7.296;2023-01-26T03:48:05;98669.03;;;0.04;100.00
4398;BME280;2213;49.720;7.296;2023-01-26T03:50:51;98668.34;;;0.02;100.00
4398;BME280;2213;49.720;7.296;2023-01-26T03:53:37;98665.78;;;0.02;100.00
4398;BME280;2213;49.720;7.296;2023-01-26T03:56:24;98664.94;;;0.02;100.00
4398;BME280;2213;49.720;7.296;2023-01-26T03:59:04;98667.22;;;0.06;100.00
4398;BME280;2213;49.720;7.296;2023-01-26T04:01:39;98661.13;;;0.07;100.00
4398;BME280;2213;49.720;7.296;2023-01-26T04:04:11;98648.25;;;0.07;100.00
4398;BME280;2213;49.720;7.296;2023-01-26T04:06:59;98651.56;;;0.09;100.00
4398;BME280;2213;49.720;7.296;2023-01-26T04:09:46;98650.66;;;0.10;100.00
4398;BME280;2213;49.720;7.296;2023-01-26T04:12:16;98654.75;;;0.13;100.00
4398;BME280;2213;49.720;7.296;2023-01-26T04:14:46;98641.16;;;0.11;100.00
4398;BME280;2213;49.720;7.296;2023-01-26T04:17:33;98645.38;;;0.12;100.00
4398;BME280;2213;49.720;7.296;2023-01-26T04:20:20;98642.94;;;0.10;100.00
4398;BME280;2213;49.720;7.296;2023-01-26T04:23:17;98634.41;;;0.10;100.00
4398;BME280;2213;49.720;7.296;2023-01-26T04:25:46;98636.34;;;0.06;100.00
4398;BME280;2213;49.720;7.296;2023-01-26T04:28:16;98628.75;;;0.05;100.00
4398;BME280;2213;49.720;7.296;2023-01-26T04:30:44;98632.03;;;0.07;100.00
4398;BME280;2213;49.720;7.296;2023-01-26T04:33:16;98628.53;;;0.08;100.00
4398;BME280;2213;49.720;7.296;2023-01-26T04:35:45;98636.56;;;0.03;100.00
4398;BME280;2213;49.720;7.296;2023-01-26T04:38:14;98630.22;;;-0.04;100.00
4398;BME280;2213;49.720;7.296;2023-01-26T04:40:52;98623.44;;;-0.05;100.00
4398;BME280;2213;49.720;7.296;2023-01-26T04:43:22;98615.41;;;-0.13;100.00
4398;BME280;2213;49.720;7.296;2023-01-26T04:45:59;98616.84;;;-0.09;100.00
4398;BME280;2213;49.720;7.296;2023-01-26T04:48:31;98614.41;;;-0.11;100.00
4398;BME280;2213;49.720;7.296;2023-01-26T04:51:03;98613.38;;;-0.08;100.00
4398;BME280;2213;49.720;7.296;2023-01-26T04:53:33;98617.59;;;-0.07;100.00
4398;BME280;2213;49.720;7.296;2023-01-26T04:56:05;98615.63;;;-0.04;100.00
4398;BME280;2213;49.720;7.296;2023-01-26T04:58:36;98617.16;;;-0.01;100.00
4398;BME280;2213;49.720;7.296;2023-01-26T05:01:06;98612.94;;;-0.02;100.00
4398;BME280;2213;49.720;7.296;2023-01-26T05:03:38;98604.31;;;-0.01;100.00
4398;BME280;2213;49.720;7.296;2023-01-26T05:06:07;98609.44;;;-0.01;100.00
4398;BME280;2213;49.720;7.296;2023-01-26T05:08:37;98608.53;;;0.00;100.00
4398;BME280;2213;49.720;7.296;2023-01-26T05:11:07;98606.13;;;-0.03;100.00
4398;BME280;2213;49.720;7.296;2023-01-26T05:13:36;98603.56;;;-0.03;100.00
4398;BME280;2213;49.720;7.296;2023-01-26T05:16:06;98598.34;;;-0.02;100.00
4398;BME280;2213;49.720;7.296;2023-01-26T05:18:37;98601.00;;;-0.03;100.00
4398;BME280;2213;49.720;7.296;2023-01-26T05:21:08;98600.06;;;-0.02;100.00
4398;BME280;2213;49.720;7.296;2023-01-26T05:23:38;98603.69;;;-0.05;100.00
4398;BME280;2213;49.720;7.296;2023-01-26T05:26:08;98594.47;;;-0.07;100.00
4398;BME280;2213;49.720;7.296;2023-01-26T05:28:36;98602.25;;;-0.09;100.00
4398;BME280;2213;49.720;7.296;2023-01-26T05:31:05;98604.75;;;-0.07;100.00
4398;BME280;2213;49.720;7.296;2023-01-26T05:33:34;98611.63;;;-0.08;100.00
4398;BME280;2213;49.720;7.296;2023-01-26T05:36:08;98617.06;;;-0.12;100.00
4398;BME280;2213;49.720;7.296;2023-01-26T05:38:37;98620.25;;;-0.09;100.00
4398;BME280;2213;49.720;7.296;2023-01-26T05:41:06;98626.31;;;-0.10;100.00
4398;BME280;2213;49.720;7.296;2023-01-26T05:43:37;98625.28;;;-0.07;100.00
4398;BME280;2213;49.720;7.296;2023-01-26T05:46:07;98630.63;;;-0.10;100.00
4398;BME280;2213;49.720;7.296;2023-01-26T05:48:37;98632.88;;;-0.06;100.00
4398;BME280;2213;49.720;7.296;2023-01-26T05:51:08;98622.59;;;-0.06;100.00
4398;BME280;2213;49.720;7.296;2023-01-26T05:53:38;98631.03;;;-0.04;100.00
4398;BME280;2213;49.720;7.296;2023-01-26T05:56:07;98620.53;;;-0.01;100.00
4398;BME280;2213;49.720;7.296;2023-01-26T05:58:37;98624.66;;;0.02;100.00
4398;BME280;2213;49.720;7.296;2023-01-26T06:01:07;98628.13;;;0.01;100.00
4398;BME280;2213;49.720;7.296;2023-01-26T06:03:38;98621.38;;;0.00;100.00
4398;BME280;2213;49.720;7.296;2023-01-26T06:06:10;98621.06;;;-0.08;100.00
4398;BME280;2213;49.720;7.296;2023-01-26T06:08:39;98622.59;;;-0.06;100.00
4398;BME280;2213;49.720;7.296;2023-01-26T06:11:08;98623.44;;;-0.05;100.00
4398;BME280;2213;49.720;7.296;2023-01-26T06:13:38;98624.13;;;-0.03;100.00
4398;BME280;2213;49.720;7.296;2023-01-26T06:16:07;98626.81;;;-0.05;100.00
4398;BME280;2213;49.720;7.296;2023-01-26T06:18:36;98632.28;;;-0.09;100.00
4398;BME280;2213;49.720;7.296;2023-01-26T06:21:08;98632.78;;;-0.17;100.00
4398;BME280;2213;49.720;7.296;2023-01-26T06:23:37;98629.22;;;-0.14;100.00
4398;BME280;2213;49.720;7.296;2023-01-26T06:26:07;98621.38;;;-0.13;100.00
4398;BME280;2213;49.720;7.296;2023-01-26T06:28:38;98628.06;;;-0.10;100.00
4398;BME280;2213;49.720;7.296;2023-01-26T06:31:08;98633.94;;;-0.08;100.00
4398;BME280;2213;49.720;7.296;2023-01-26T06:33:37;98639.88;;;-0.08;100.00
4398;BME280;2213;49.720;7.296;2023-01-26T06:36:11;98634.84;;;-0.09;100.00
4398;BME280;2213;49.720;7.296;2023-01-26T06:38:47;98634.13;;;-0.11;100.00
4398;BME280;2213;49.720;7.296;2023-01-26T06:41:17;98628.28;;;-0.13;100.00
4398;BME280;2213;49.720;7.296;2023-01-26T06:43:47;98639.38;;;-0.13;100.00
4398;BME280;2213;49.720;7.296;2023-01-26T06:46:18;98641.63;;;-0.08;100.00
4398;BME280;2213;49.720;7.296;2023-01-26T06:48:47;98638.47;;;-0.12;100.00
4398;BME280;2213;49.720;7.296;2023-01-26T06:51:54;98637.09;;;-0.17;100.00
4398;BME280;2213;49.720;7.296;2023-01-26T06:54:25;98642.16;;;-0.16;100.00
4398;BME280;2213;49.720;7.296;2023-01-26T06:56:54;98642.97;;;-0.15;100.00
4398;BME280;2213;49.720;7.296;2023-01-26T06:59:23;98639.69;;;-0.17;100.00
4398;BME280;2213;49.720;7.296;2023-01-26T07:01:52;98649.47;;;-0.22;100.00
4398;BME280;2213;49.720;7.296;2023-01-26T07:04:25;98650.50;;;-0.25;100.00
4398;BME280;2213;49.720;7.296;2023-01-26T07:06:56;98650.91;;;-0.31;100.00
4398;BME280;2213;49.720;7.296;2023-01-26T07:09:26;98648.66;;;-0.35;100.00
4398;BME280;2213;49.720;7.296;2023-01-26T07:11:58;98647.72;;;-0.34;100.00
4398;BME280;2213;49.720;7.296;2023-01-26T07:14:29;98650.81;;;-0.42;100.00
4398;BME280;2213;49.720;7.296;2023-01-26T07:17:00;98653.56;;;-0.45;100.00
4398;BME280;2213;49.720;7.296;2023-01-26T07:19:30;98649.91;;;-0.54;100.00
4398;BME280;2213;49.720;7.296;2023-01-26T07:22:03;98653.28;;;-0.66;100.00
4398;BME280;2213;49.720;7.296;2023-01-26T07:24:34;98660.59;;;-0.60;100.00
4398;BME280;2213;49.720;7.296;2023-01-26T07:27:04;98669.91;;;-0.59;100.00
4398;BME280;2213;49.720;7.296;2023-01-26T07:29:35;98674.66;;;-0.53;100.00
4398;BME280;2213;49.720;7.296;2023-01-26T07:32:05;98668.28;;;-0.60;100.00
4398;BME280;2213;49.720;7.296;2023-01-26T07:34:35;98672.91;;;-0.65;100.00
4398;BME280;2213;49.720;7.296;2023-01-26T07:37:06;98670.13;;;-0.62;100.00
4398;BME280;2213;49.720;7.296;2023-01-26T07:39:35;98680.19;;;-0.59;100.00
4398;BME280;2213;49.720;7.296;2023-01-26T07:42:04;98673.22;;;-0.57;100.00
4398;BME280;2213;49.720;7.296;2023-01-26T07:44:33;98679.81;;;-0.53;100.00
4398;BME280;2213;49.720;7.296;2023-01-26T07:47:03;98676.63;;;-0.56;100.00
4398;BME280;2213;49.720;7.296;2023-01-26T07:49:34;98681.97;;;-0.59;100.00
4398;BME280;2213;49.720;7.296;2023-01-26T07:52:06;98682.88;;;-0.60;100.00
4398;BME280;2213;49.720;7.296;2023-01-26T07:54:37;98683.69;;;-0.60;100.00
4398;BME280;2213;49.720;7.296;2023-01-26T07:57:07;98696.00;;;-0.65;100.00
4398;BME280;2213;49.720;7.296;2023-01-26T07:59:37;98688.84;;;-0.60;100.00
4398;BME280;2213;49.720;7.296;2023-01-26T08:02:08;98693.75;;;-0.57;100.00
4398;BME280;2213;49.720;7.296;2023-01-26T08:04:37;98688.84;;;-0.60;100.00
4398;BME280;2213;49.720;7.296;2023-01-26T08:07:08;98695.50;;;-0.57;100.00
4398;BME280;2213;49.720;7.296;2023-01-26T08:09:37;98692.09;;;-0.58;100.00
4398;BME280;2213;49.720;7.296;2023-01-26T08:12:06;98691.06;;;-0.55;100.00
4398;BME280;2213;49.720;7.296;2023-01-26T08:14:35;98691.50;;;-0.61;100.00
4398;BME280;2213;49.720;7.296;2023-01-26T08:17:13;98689.13;;;-0.64;100.00
4398;BME280;2213;49.720;7.296;2023-01-26T08:19:44;98690.78;;;-0.63;100.00
4398;BME280;2213;49.720;7.296;2023-01-26T08:22:16;98697.88;;;-0.54;100.00
4398;BME280;2213;49.720;7.296;2023-01-26T08:24:47;98693.25;;;-0.49;100.00
4398;BME280;2213;49.720;7.296;2023-01-26T08:27:18;98688.75;;;-0.45;100.00
4398;BME280;2213;49.720;7.296;2023-01-26T08:29:47;98695.50;;;-0.44;100.00
4398;BME280;2213;49.720;7.296;2023-01-26T08:32:17;98707.34;;;-0.42;100.00
4398;BME280;2213;49.720;7.296;2023-01-26T08:34:47;98697.06;;;-0.42;100.00
4398;BME280;2213;49.720;7.296;2023-01-26T08:37:19;98704.16;;;-0.45;100.00
4398;BME280;2213;49.720;7.296;2023-01-26T08:39:48;98703.19;;;-0.44;100.00
4398;BME280;2213;49.720;7.296;2023-01-26T08:42:18;98702.28;;;-0.43;100.00
4398;BME280;2213;49.720;7.296;2023-01-26T08:44:50;98710.00;;;-0.43;100.00
4398;BME280;2213;49.720;7.296;2023-01-26T08:47:20;98714.22;;;-0.42;100.00
4398;BME280;2213;49.720;7.296;2023-01-26T08:49:50;98712.47;;;-0.42;100.00
4398;BME280;2213;49.720;7.296;2023-01-26T08:52:22;98709.06;;;-0.42;100.00
4398;BME280;2213;49.720;7.296;2023-01-26T08:54:54;98709.06;;;-0.42;100.00
4398;BME280;2213;49.720;7.296;2023-01-26T08:57:23;98713.09;;;-0.38;100.00
4398;BME280;2213;49.720;7.296;2023-01-26T08:59:53;98712.97;;;-0.37;100.00
4398;BME280;2213;49.720;7.296;2023-01-26T09:02:23;98712.97;;;-0.37;100.00
4398;BME280;2213;49.720;7.296;2023-01-26T09:04:53;98710.19;;;-0.34;100.00
4398;BME280;2213;49.720;7.296;2023-01-26T09:07:24;98704.25;;;-0.47;100.00
4398;BME280;2213;49.720;7.296;2023-01-26T09:09:55;98703.72;;;-0.39;100.00
4398;BME280;2213;49.720;7.296;2023-01-26T09:12:24;98706.31;;;-0.39;100.00
4398;BME280;2213;49.720;7.296;2023-01-26T09:14:54;98710.19;;;-0.34;100.00
4398;BME280;2213;49.720;7.296;2023-01-26T09:17:24;98707.53;;;-0.32;100.00
4398;BME280;2213;49.720;7.296;2023-01-26T09:19:53;98704.06;;;-0.31;100.00
4398;BME280;2213;49.720;7.296;2023-01-26T09:22:25;98704.75;;;-0.29;100.00
4398;BME280;2213;49.720;7.296;2023-01-26T09:24:55;98704.75;;;-0.29;100.00
4398;BME280;2213;49.720;7.296;2023-01-26T09:27:25;98702.41;;;-0.32;100.00
4398;BME280;2213;49.720;7.296;2023-01-26T09:29:54;98699.31;;;-0.37;100.00
4398;BME280;2213;49.720;7.296;2023-01-26T09:32:25;98699.09;;;-0.34;100.00
4398;BME280;2213;49.720;7.296;2023-01-26T09:34:54;98702.50;;;-0.34;100.00
4398;BME280;2213;49.720;7.296;2023-01-26T09:37:25;98705.69;;;-0.30;100.00
4398;BME280;2213;49.720;7.296;2023-01-26T09:39:55;98702.91;;;-0.27;100.00
4398;BME280;2213;49.720;7.296;2023-01-26T09:42:41;98703.31;;;-0.33;100.00
4398;BME280;2213;49.720;7.296;2023-01-26T09:45:28;98705.28;;;-0.37;100.00
4398;BME280;2213;49.720;7.296;2023-01-26T09:48:20;98706.31;;;-0.39;100.00
4398;BME280;2213;49.720;7.296;2023-01-26T09:50:59;98703.31;;;-0.33;100.00
4398;BME280;2213;49.720;7.296;2023-01-26T09:53:43;98717.00;;;-0.33;100.00
4398;BME280;2213;49.720;7.296;2023-01-26T09:56:19;98715.25;;;-0.32;100.00
4398;BME280;2213;49.720;7.296;2023-01-26T09:58:56;98707.75;;;-0.35;100.00
4398;BME280;2213;49.720;7.296;2023-01-26T10:01:37;98717.59;;;-0.29;100.00
4398;BME280;2213;49.720;7.296;2023-01-26T10:04:21;98710.50;;;-0.26;100.00
4398;BME280;2213;49.720;7.296;2023-01-26T10:06:56;98705.25;;;-0.24;100.00
4398;BME280;2213;49.720;7.296;2023-01-26T10:09:34;98702.59;;;-0.23;100.00
4398;BME280;2213;49.720;7.296;2023-01-26T10:12:13;98704.25;;;-0.22;100.00
4398;BME280;2213;49.720;7.296;2023-01-26T10:14:50;98704.56;;;-0.26;100.00
4398;BME280;2213;49.720;7.296;2023-01-26T10:17:32;98706.91;;;-0.23;100.00
4398;BME280;2213;49.720;7.296;2023-01-26T10:20:06;98712.88;;;-0.35;100.00
4398;BME280;2213;49.720;7.296;2023-01-26T10:22:44;98710.81;;;-0.43;100.00
4398;BME280;2213;49.720;7.296;2023-01-26T10:25:20;98713.47;;;-0.44;100.00
4398;BME280;2213;49.720;7.296;2023-01-26T10:27:52;98710.81;;;-0.43;100.00
4398;BME280;2213;49.720;7.296;2023-01-26T10:30:21;98703.63;;;-0.38;100.00
4398;BME280;2213;49.720;7.296;2023-01-26T10:32:53;98704.56;;;-0.39;100.00
4398;BME280;2213;49.720;7.296;2023-01-26T10:35:24;98698.06;;;-0.44;100.00
4398;BME280;2213;49.720;7.296;2023-01-26T10:37:54;98690.69;;;-0.49;100.00
4398;BME280;2213;49.720;7.296;2023-01-26T10:40:26;98694.38;;;-0.40;100.00
4398;BME280;2213;49.720;7.296;2023-01-26T10:42:58;98692.94;;;-0.32;100.00
4398;BME280;2213;49.720;7.296;2023-01-26T10:45:30;98694.78;;;-0.34;100.00
4398;BME280;2213;49.720;7.296;2023-01-26T10:48:04;98698.38;;;-0.36;100.00
4398;BME280;2213;49.720;7.296;2023-01-26T10:50:34;98698.28;;;-0.35;100.00
4398;BME280;2213;49.720;7.296;2023-01-26T10:53:04;98693.78;;;-0.31;100.00
4398;BME280;2213;49.720;7.296;2023-01-26T10:55:36;98698.91;;;-0.31;100.00
4398;BME280;2213;49.720;7.296;2023-01-26T10:58:39;98701.56;;;-0.33;100.00
4398;BME280;2213;49.720;7.296;2023-01-26T11:01:12;98694.19;;;-0.25;100.00
4398;BME280;2213;49.720;7.296;2023-01-26T11:04:03;98681.00;;;-0.20;100.00
4398;BME280;2213;49.720;7.296;2023-01-26T11:06:33;98666.31;;;-0.18;100.00
4398;BME280;2213;49.720;7.296;2023-01-26T11:09:17;98654.19;;;-0.16;100.00
4398;BME280;2213;49.720;7.296;2023-01-26T11:11:58;98654.47;;;-0.08;100.00
4398;BME280;2213;49.720;7.296;2023-01-26T11:14:31;98646.34;;;-0.02;100.00
4398;BME280;2213;49.720;7.296;2023-01-26T11:17:14;98650.34;;;0.02;100.00
4398;BME280;2213;49.720;7.296;2023-01-26T11:20:04;98644.28;;;0.03;100.00
4398;BME280;2213;49.720;7.296;2023-01-26T11:22:45;98642.41;;;0.05;100.00
4398;BME280;2213;49.720;7.296;2023-01-26T11:25:24;98652.69;;;0.05;100.00
4398;BME280;2213;49.720;7.296;2023-01-26T11:28:21;98644.16;;;0.05;100.00
4398;BME280;2213;49.720;7.296;2023-01-26T11:31:12;98643.56;;;0.01;100.00
4398;BME280;2213;49.720;7.296;2023-01-26T11:33:55;98643.34;;;0.04;100.00
4398;BME280;2213;49.720;7.296;2023-01-26T11:36:45;98642.34;;;-0.06;100.00
4398;BME280;2213;49.720;7.296;2023-01-26T11:39:27;98646.13;;;0.01;100.00
4398;BME280;2213;49.720;7.296;2023-01-26T11:42:15;98641.38;;;0.08;100.00
4398;BME280;2213;49.720;7.296;2023-01-26T11:45:20;98635.94;;;0.12;100.00
4398;BME280;2213;49.720;7.296;2023-01-26T11:48:12;98627.28;;;0.13;100.00
4398;BME280;2213;49.720;7.296;2023-01-26T11:50:56;98640.03;;;0.15;100.00
4398;BME280;2213;49.720;7.296;2023-01-26T11:53:54;98631.78;;;0.22;100.00
4398;BME280;2213;49.720;7.296;2023-01-26T11:56:39;98621.28;;;0.25;100.00
4398;BME280;2213;49.720;7.296;2023-01-26T11:59:17;98623.63;;;0.28;100.00
4398;BME280;2213;49.720;7.296;2023-01-26T12:01:58;98622.47;;;0.32;100.00
4398;BME280;2213;49.720;7.296;2023-01-26T12:04:35;98623.41;;;0.31;100.00
4398;BME280;2213;49.720;7.296;2023-01-26T12:07:14;98603.56;;;0.33;100.00
4398;BME280;2213;49.720;7.296;2023-01-26T12:09:49;98607.34;;;0.40;100.00
4398;BME280;2213;49.720;7.296;2023-01-26T12:12:33;98595.06;;;0.44;100.00
4398;BME280;2213;49.720;7.296;2023-01-26T12:15:12;98599.16;;;0.46;100.00
4398;BME280;2213;49.720;7.296;2023-01-26T12:17:57;98601.53;;;0.49;100.00
4398;BME280;2213;49.720;7.296;2023-01-26T12:20:37;98598.72;;;0.52;100.00
4398;BME280;2213;49.720;7.296;2023-01-26T12:23:16;98594.41;;;0.53;100.00
4398;BME280;2213;49.720;7.296;2023-01-26T12:25:57;98586.38;;;0.58;100.00
4398;BME280;2213;49.720;7.296;2023-01-26T12:28:33;98574.19;;;0.60;100.00
4398;BME280;2213;49.720;7.296;2023-01-26T12:31:14;98575.63;;;0.64;100.00
4398;BME280;2213;49.720;7.296;2023-01-26T12:33:52;98565.56;;;0.61;100.00
4398;BME280;2213;49.720;7.296;2023-01-26T12:36:41;98573.97;;;0.63;100.00
4398;BME280;2213;49.720;7.296;2023-01-26T12:39:23;98571.06;;;0.67;100.00
4398;BME280;2213;49.720;7.296;2023-01-26T12:42:18;98561.38;;;0.71;100.00
4398;BME280;2213;49.720;7.296;2023-01-26T12:44:54;98552.50;;;0.75;100.00
4398;BME280;2213;49.720;7.296;2023-01-26T12:47:32;98551.44;;;0.77;100.00
4398;BME280;2213;49.720;7.296;2023-01-26T12:50:14;98553.69;;;0.82;100.00
4398;BME280;2213;49.720;7.296;2023-01-26T12:52:54;98552.03;;;0.81;100.00
4398;BME280;2213;49.720;7.296;2023-01-26T12:55:31;98545.97;;;0.82;100.00
4398;BME280;2213;49.720;7.296;2023-01-26T12:58:09;98549.38;;;0.82;100.00
4398;BME280;2213;49.720;7.296;2023-01-26T13:00:51;98545.50;;;0.88;100.00
4398;BME280;2213;49.720;7.296;2023-01-26T13:03:27;98543.66;;;0.90;100.00
4398;BME280;2213;49.720;7.296;2023-01-26T13:06:01;98541.53;;;0.95;100.00
4398;BME280;2213;49.720;7.296;2023-01-26T13:08:59;98539.22;;;1.03;100.00
4398;BME280;2213;49.720;7.296;2023-01-26T13:11:48;98539.91;;;1.05;100.00
4398;BME280;2213;49.720;7.296;2023-01-26T13:14:35;98533.25;;;1.02;100.00
4398;BME280;2213;49.720;7.296;2023-01-26T13:17:57;98532.78;;;1.09;100.00
4398;BME280;2213;49.720;7.296;2023-01-26T13:20:50;98537.00;;;1.10;100.00
4398;BME280;2213;49.720;7.296;2023-01-26T13:23:54;98534.28;;;1.11;100.00
4398;BME280;2213;49.720;7.296;2023-01-26T13:26:51;98537.13;;;1.19;100.00
4398;BME280;2213;49.720;7.296;2023-01-26T13:29:32;98542.63;;;1.26;100.00
4398;BME280;2213;49.720;7.296;2023-01-26T13:32:54;98538.88;;;1.30;100.00
4398;BME280;2213;49.720;7.296;2023-01-26T13:35:30;98528.72;;;1.28;100.00
4398;BME280;2213;49.720;7.296;2023-01-26T13:38:19;98529.16;;;1.33;100.00
4398;BME280;2213;49.720;7.296;2023-01-26T13:40:51;98534.31;;;1.33;100.00
4398;BME280;2213;49.720;7.296;2023-01-26T13:43:34;98534.78;;;1.38;100.00
4398;BME280;2213;49.720;7.296;2023-01-26T13:46:14;98536.41;;;1.39;100.00
4398;BME280;2213;49.720;7.296;2023-01-26T13:48:48;98536.56;;;1.38;100.00
4398;BME280;2213;49.720;7.296;2023-01-26T13:51:21;98534.78;;;1.38;100.00
4398;BME280;2213;49.720;7.296;2023-01-26T13:54:00;98534.66;;;1.40;100.00
4398;BME280;2213;49.720;7.296;2023-01-26T13:56:34;98533.38;;;1.34;100.00